createdAt,value
2023-04-18T00:00:42.379Z,20.05
2023-04-18T00:03:09.809Z,39.78
2023-04-18T00:05:38.040Z,24.40
2023-04-18T00:08:05.689Z,31.95
2023-04-18T00:10:33.300Z,24.08
2023-04-18T00:13:00.603Z,22.17
2023-04-18T00:15:29.414Z,20.27
2023-04-18T00:17:57.197Z,27.17
2023-04-18T00:20:27.024Z,24.33
2023-04-18T00:22:55.105Z,19.42
2023-04-18T00:25:22.340Z,20.95
2023-04-18T00:27:49.668Z,20.25
2023-04-18T00:30:18.218Z,21.17
2023-04-18T00:32:45.432Z,24.80
2023-04-18T00:35:12.575Z,20.65
2023-04-18T00:37:39.661Z,22.30
2023-04-18T00:40:07.356Z,19.83
2023-04-18T00:42:34.501Z,16.40
2023-04-18T00:45:01.868Z,18.52
2023-04-18T00:47:34.215Z,23.58
2023-04-18T00:50:03.181Z,27.88
2023-04-18T00:52:33.894Z,18.17
2023-04-18T00:55:01.500Z,24.60
2023-04-18T00:57:29.948Z,24.00
2023-04-18T00:59:57.335Z,22.20
2023-04-18T01:02:26.598Z,20.75
2023-04-18T01:07:20.556Z,19.08
2023-04-18T01:09:48.078Z,20.13
2023-04-18T01:12:15.086Z,24.33
2023-04-18T01:14:43.195Z,21.20
2023-04-18T01:17:10.869Z,18.80
2023-04-18T01:19:37.991Z,22.30
2023-04-18T01:22:08.040Z,18.90
2023-04-18T01:24:35.958Z,18.90
2023-04-18T01:27:03.380Z,21.92
2023-04-18T01:29:30.633Z,22.40
2023-04-18T01:31:57.974Z,20.05
2023-04-18T01:34:25.034Z,17.58
2023-04-18T01:36:52.090Z,20.65
2023-04-18T01:39:19.254Z,23.55
2023-04-18T01:41:46.375Z,27.20
2023-04-18T01:44:13.659Z,18.17
2023-04-18T01:46:41.237Z,15.88
2023-04-18T01:49:09.188Z,15.57
2023-04-18T01:51:38.940Z,23.42
2023-04-18T01:54:06.155Z,19.58
2023-04-18T01:56:33.264Z,21.08
2023-04-18T01:59:01.788Z,17.90
2023-04-18T02:01:28.883Z,19.02
2023-04-18T02:03:58.834Z,17.83
2023-04-18T02:06:26.430Z,16.02
2023-04-18T02:08:53.619Z,18.08
2023-04-18T02:11:20.832Z,25.55
2023-04-18T02:13:47.953Z,16.70
2023-04-18T02:16:15.176Z,20.88
2023-04-18T02:18:44.021Z,22.90
2023-04-18T02:21:11.379Z,20.77
2023-04-18T02:23:38.539Z,20.73
2023-04-18T02:26:05.756Z,24.30
2023-04-18T02:28:32.884Z,21.75
2023-04-18T02:31:03.774Z,23.42
2023-04-18T02:33:30.979Z,24.13
2023-04-18T02:35:58.137Z,18.42
2023-04-18T02:38:25.269Z,23.05
2023-04-18T02:40:52.712Z,26.13
2023-04-18T02:43:21.529Z,20.67
2023-04-18T02:45:49.031Z,17.50
2023-04-18T02:48:16.194Z,23.15
2023-04-18T02:50:44.548Z,17.05
2023-04-18T02:53:11.699Z,18.90
2023-04-18T02:55:59.455Z,20.20
2023-04-18T02:58:36.523Z,15.75
2023-04-18T03:01:22.281Z,27.23
2023-04-18T03:03:55.101Z,17.30
2023-04-18T03:06:44.072Z,25.75
2023-04-18T03:09:11.678Z,23.15
2023-04-18T03:11:45.060Z,23.85
2023-04-18T03:14:13.099Z,23.27
2023-04-18T03:16:46.791Z,16.00
2023-04-18T03:19:17.957Z,22.33
2023-04-18T03:21:45.500Z,19.52
2023-04-18T03:24:12.822Z,23.30
2023-04-18T03:26:41.704Z,19.45
2023-04-18T03:29:09.439Z,20.48
2023-04-18T03:31:36.610Z,21.65
2023-04-18T03:34:03.852Z,19.17
2023-04-18T03:36:31.507Z,18.73
2023-04-18T03:38:59.194Z,23.33
2023-04-18T03:41:27.144Z,24.33
2023-04-18T03:43:56.137Z,19.13
2023-04-18T03:46:24.710Z,16.20
2023-04-18T03:48:54.473Z,22.00
2023-04-18T03:51:22.075Z,21.17
2023-04-18T03:53:49.193Z,15.95
2023-04-18T03:56:21.178Z,17.42
2023-04-18T03:58:51.487Z,20.92
2023-04-18T04:01:20.472Z,18.67
2023-04-18T04:03:47.865Z,19.58
2023-04-18T04:06:15.754Z,18.75
2023-04-18T04:08:49.564Z,18.70
2023-04-18T04:11:23.970Z,20.80
2023-04-18T04:13:53.806Z,20.45
2023-04-18T04:16:25.764Z,19.48
2023-04-18T04:18:59.121Z,24.08
2023-04-18T04:21:36.999Z,23.08
2023-04-18T04:24:07.131Z,31.80
2023-04-18T04:26:50.927Z,29.20
2023-04-18T04:29:21.929Z,24.50
2023-04-18T04:31:49.401Z,21.35
2023-04-18T04:34:31.792Z,16.70
2023-04-18T04:37:01.581Z,21.10
2023-04-18T04:39:40.712Z,24.10
2023-04-18T04:42:38.732Z,17.83
2023-04-18T04:45:12.583Z,20.58
2023-04-18T04:47:40.004Z,21.13
2023-04-18T04:50:08.515Z,19.52
2023-04-18T04:52:35.781Z,28.90
2023-04-18T04:55:03.861Z,28.02
2023-04-18T04:57:31.981Z,29.33
2023-04-18T05:00:00.158Z,24.77
2023-04-18T05:02:32.090Z,20.67
2023-04-18T05:04:59.598Z,22.73
2023-04-18T05:07:26.945Z,27.67
2023-04-18T05:09:53.999Z,24.35
2023-04-18T05:12:21.052Z,22.98
2023-04-18T05:14:48.147Z,25.02
2023-04-18T05:17:15.203Z,23.30
2023-04-18T05:19:44.274Z,19.98
2023-04-18T05:24:38.344Z,20.75
2023-04-18T05:27:06.168Z,21.67
2023-04-18T05:29:33.487Z,30.27
2023-04-18T05:32:01.376Z,22.77
2023-04-18T05:34:28.486Z,28.50
2023-04-18T05:36:55.629Z,33.20
2023-04-18T05:39:23.081Z,28.70
2023-04-18T05:41:50.149Z,28.23
2023-04-18T05:44:18.304Z,24.08
2023-04-18T05:46:46.648Z,29.80
2023-04-18T05:49:13.937Z,22.85
2023-04-18T05:51:41.014Z,23.33
2023-04-18T05:54:08.050Z,29.95
2023-04-18T05:56:35.169Z,27.33
2023-04-18T05:59:02.358Z,22.33
2023-04-18T06:01:29.484Z,27.48
2023-04-18T06:03:56.838Z,32.83
2023-04-18T06:06:24.348Z,26.60
2023-04-18T06:08:51.401Z,25.92
2023-04-18T06:11:21.273Z,40.83
2023-04-18T06:13:48.609Z,45.33
2023-04-18T06:16:16.152Z,31.30
2023-04-18T06:18:43.316Z,25.05
2023-04-18T06:21:10.464Z,25.92
2023-04-18T06:23:38.629Z,27.85
2023-04-18T06:26:07.324Z,30.42
2023-04-18T06:28:34.346Z,41.28
2023-04-18T06:31:01.428Z,35.22
2023-04-18T06:33:28.571Z,25.95
2023-04-18T06:35:55.868Z,29.95
2023-04-18T06:38:23.114Z,33.78
2023-04-18T06:40:50.202Z,34.88
2023-04-18T06:43:17.413Z,28.02
2023-04-18T06:45:46.104Z,27.52
2023-04-18T06:48:13.530Z,29.48
2023-04-18T06:50:40.926Z,26.05
2023-04-18T06:53:07.994Z,29.42
2023-04-18T06:55:36.238Z,25.65
2023-04-18T06:58:03.527Z,23.55
2023-04-18T07:00:30.822Z,19.10
2023-04-18T07:02:58.141Z,23.38
2023-04-18T07:05:25.551Z,34.85
2023-04-18T07:07:52.578Z,29.10
2023-04-18T07:10:19.859Z,26.17
2023-04-18T07:12:47.677Z,20.50
2023-04-18T07:15:14.954Z,23.95
2023-04-18T07:17:42.016Z,20.80
2023-04-18T07:20:09.584Z,27.23
2023-04-18T07:22:37.514Z,22.33
2023-04-18T07:25:04.969Z,22.70
2023-04-18T07:27:34.793Z,28.88
2023-04-18T07:30:02.448Z,25.23
2023-04-18T07:32:33.577Z,33.30
2023-04-18T07:35:01.546Z,32.97
2023-04-18T07:37:32.130Z,30.75
2023-04-18T07:39:59.407Z,31.05
2023-04-18T07:42:26.908Z,28.65
2023-04-18T07:44:59.040Z,30.70
2023-04-18T07:47:29.885Z,27.45
2023-04-18T07:49:58.038Z,28.33
2023-04-18T07:52:25.158Z,29.23
2023-04-18T07:54:52.233Z,26.65
2023-04-18T07:57:19.423Z,25.10
2023-04-18T07:59:46.540Z,25.55
2023-04-18T08:02:13.649Z,30.90
2023-04-18T08:04:41.113Z,26.55
2023-04-18T08:07:08.409Z,27.10
2023-04-18T08:09:35.579Z,32.67
2023-04-18T08:12:02.892Z,20.15
2023-04-18T08:14:29.999Z,26.88
2023-04-18T08:16:57.045Z,21.17
2023-04-18T08:19:24.410Z,27.83
2023-04-18T08:21:52.194Z,24.05
2023-04-18T08:24:19.342Z,22.60
2023-04-18T08:26:46.533Z,25.25
2023-04-18T08:29:14.610Z,30.90
2023-04-18T08:31:41.920Z,22.35
2023-04-18T08:34:09.099Z,36.30
2023-04-18T08:36:36.240Z,22.48
2023-04-18T08:39:03.603Z,23.33
2023-04-18T08:41:36.148Z,23.92
2023-04-18T08:44:03.947Z,27.83
2023-04-18T08:46:36.030Z,22.05
2023-04-18T08:49:06.364Z,29.70
2023-04-18T08:51:33.947Z,18.85
2023-04-18T08:54:04.415Z,21.05
2023-04-18T08:56:32.061Z,21.08
2023-04-18T08:59:00.532Z,20.77
2023-04-18T09:01:51.222Z,24.35
2023-04-18T09:04:38.389Z,19.35
2023-04-18T09:07:09.046Z,27.27
2023-04-18T09:09:46.415Z,19.20
2023-04-18T09:12:19.608Z,24.30
2023-04-18T09:14:48.026Z,23.48
2023-04-18T09:17:21.948Z,28.30
2023-04-18T09:19:50.381Z,24.92
2023-04-18T09:22:18.223Z,25.17
2023-04-18T09:24:53.415Z,23.38
2023-04-18T09:27:23.265Z,37.33
2023-04-18T09:29:55.797Z,24.50
2023-04-18T09:32:27.247Z,39.35
2023-04-18T09:34:59.794Z,26.52
2023-04-18T09:37:29.014Z,33.33
2023-04-18T09:39:56.317Z,15.05
2023-04-18T09:42:26.730Z,18.58
2023-04-18T09:45:06.920Z,23.38
2023-04-18T09:47:36.783Z,17.80
2023-04-18T09:50:09.850Z,15.25
2023-04-18T09:52:41.491Z,23.02
2023-04-18T09:55:11.163Z,16.77
2023-04-18T09:57:42.772Z,19.08
2023-04-18T10:00:20.484Z,19.73
2023-04-18T10:02:57.917Z,19.60
2023-04-18T10:05:35.669Z,17.27
2023-04-18T10:08:03.765Z,20.63
2023-04-18T10:10:31.009Z,18.42
2023-04-18T10:12:59.733Z,19.10
2023-04-18T10:15:29.697Z,18.73
2023-04-18T10:18:10.430Z,17.30
2023-04-18T10:20:37.528Z,18.75
2023-04-18T10:23:29.318Z,28.15
2023-04-18T10:25:56.598Z,22.67
2023-04-18T10:28:24.757Z,15.52
2023-04-18T10:30:54.313Z,17.95
2023-04-18T10:33:41.018Z,16.40
2023-04-18T10:36:09.517Z,16.33
2023-04-18T10:38:45.390Z,18.50
2023-04-18T10:41:19.334Z,18.98
2023-04-18T10:44:15.099Z,27.20
2023-04-18T10:47:04.036Z,18.10
2023-04-18T10:49:34.180Z,19.13
2023-04-18T10:52:02.634Z,17.15
2023-04-18T10:54:35.966Z,19.40
2023-04-18T10:57:04.719Z,17.60
2023-04-18T10:59:34.308Z,13.50
2023-04-18T11:02:24.323Z,16.40
2023-04-18T11:04:56.431Z,16.23
2023-04-18T11:07:37.973Z,18.83
2023-04-18T11:10:09.690Z,21.08
2023-04-18T11:12:39.253Z,15.38
2023-04-18T11:15:23.215Z,19.52
2023-04-18T11:17:58.148Z,15.07
2023-04-18T11:22:57.681Z,21.77
2023-04-18T11:25:32.585Z,17.63
2023-04-18T11:28:01.566Z,19.67
2023-04-18T11:30:37.056Z,18.00
2023-04-18T11:33:14.159Z,26.15
2023-04-18T11:35:45.446Z,37.45
2023-04-18T11:38:15.967Z,26.02
2023-04-18T11:40:50.200Z,18.02
2023-04-18T11:43:22.496Z,21.08
2023-04-18T11:45:58.835Z,23.23
2023-04-18T11:48:36.601Z,25.98
2023-04-18T11:51:04.834Z,19.00
2023-04-18T11:53:36.637Z,20.45
2023-04-18T11:56:05.650Z,13.57
2023-04-18T11:58:34.304Z,14.57
2023-04-18T12:01:22.778Z,13.30
2023-04-18T12:04:07.806Z,18.60
2023-04-18T12:06:52.412Z,15.15
2023-04-18T12:09:22.831Z,17.10
2023-04-18T12:12:03.239Z,17.15
2023-04-18T12:14:30.924Z,18.85
2023-04-18T12:16:58.017Z,17.67
2023-04-18T12:19:30.050Z,17.85
2023-04-18T12:22:06.875Z,24.75
2023-04-18T12:24:34.621Z,34.38
2023-04-18T12:27:02.026Z,17.30
2023-04-18T12:29:29.732Z,19.38
2023-04-18T12:31:56.990Z,25.50
2023-04-18T12:34:24.204Z,15.23
2023-04-18T12:36:51.293Z,21.38
2023-04-18T12:39:18.372Z,19.15
2023-04-18T12:41:46.337Z,14.77
2023-04-18T12:44:14.257Z,18.45
2023-04-18T12:46:41.485Z,16.98
2023-04-18T12:49:08.705Z,18.35
2023-04-18T12:51:35.868Z,13.43
2023-04-18T12:54:03.098Z,18.48
2023-04-18T12:56:30.206Z,16.88
2023-04-18T12:58:57.280Z,19.05
2023-04-18T13:01:24.462Z,19.92
2023-04-18T13:04:03.892Z,17.73
2023-04-18T13:06:38.517Z,23.33
2023-04-18T13:09:05.674Z,20.85
2023-04-18T13:11:32.709Z,24.58
2023-04-18T13:14:00.288Z,19.30
2023-04-18T13:16:27.421Z,19.60
2023-04-18T13:18:54.480Z,19.15
2023-04-18T13:21:25.040Z,16.85
2023-04-18T13:23:52.299Z,16.63
2023-04-18T13:26:19.407Z,21.52
2023-04-18T13:28:46.620Z,16.23
2023-04-18T13:31:16.347Z,15.50
2023-04-18T13:33:44.123Z,20.83
2023-04-18T13:36:11.279Z,20.45
2023-04-18T13:38:38.817Z,13.82
2023-04-18T13:41:12.361Z,17.67
2023-04-18T13:43:40.276Z,18.13
2023-04-18T13:46:07.437Z,15.18
2023-04-18T13:48:34.667Z,20.15
2023-04-18T13:51:02.755Z,15.35
2023-04-18T13:53:31.085Z,17.70
2023-04-18T13:55:59.205Z,17.10
2023-04-18T13:58:26.291Z,17.60
2023-04-18T14:00:54.084Z,17.98
2023-04-18T14:03:21.257Z,16.17
2023-04-18T14:05:48.541Z,18.65
2023-04-18T14:08:15.666Z,19.88
2023-04-18T14:10:42.725Z,16.63
2023-04-18T14:13:10.691Z,15.40
2023-04-18T14:15:37.804Z,13.73
2023-04-18T14:18:05.081Z,16.38
2023-04-18T14:20:34.788Z,17.30
2023-04-18T14:23:04.588Z,16.88
2023-04-18T14:25:31.631Z,18.05
2023-04-18T14:28:12.291Z,14.48
2023-04-18T14:30:40.518Z,16.15
2023-04-18T14:33:09.646Z,14.10
2023-04-18T14:35:37.258Z,17.00
2023-04-18T14:38:04.485Z,15.70
2023-04-18T14:40:32.928Z,13.43
2023-04-18T14:43:00.325Z,16.90
2023-04-18T14:45:27.577Z,16.73
2023-04-18T14:47:55.935Z,13.07
2023-04-18T14:50:23.229Z,16.05
2023-04-18T14:52:50.953Z,17.40
2023-04-18T14:55:20.167Z,12.40
2023-04-18T14:57:48.431Z,15.70
2023-04-18T15:00:15.987Z,12.85
2023-04-18T15:02:43.401Z,12.32
2023-04-18T15:05:11.691Z,16.60
2023-04-18T15:07:39.003Z,16.15
2023-04-18T15:10:06.718Z,13.60
2023-04-18T15:12:33.847Z,17.42
2023-04-18T15:15:01.030Z,15.52
2023-04-18T15:17:28.544Z,15.27
2023-04-18T15:19:55.641Z,15.00
2023-04-18T15:22:22.968Z,15.23
2023-04-18T15:24:50.189Z,12.30
2023-04-18T15:27:17.482Z,17.75
2023-04-18T15:29:44.689Z,13.05
2023-04-18T15:32:12.652Z,15.15
2023-04-18T15:34:39.949Z,15.80
2023-04-18T15:37:07.126Z,15.98
2023-04-18T15:39:34.327Z,14.52
2023-04-18T15:42:02.395Z,15.60
2023-04-18T15:44:30.735Z,12.32
2023-04-18T15:46:58.326Z,16.33
2023-04-18T15:49:25.904Z,21.63
2023-04-18T15:51:52.988Z,14.88
2023-04-18T15:54:20.118Z,17.70
2023-04-18T15:56:47.280Z,19.17
2023-04-18T15:59:14.799Z,17.00
2023-04-18T16:01:43.865Z,19.52
2023-04-18T16:04:13.193Z,15.48
2023-04-18T16:06:40.794Z,16.55
2023-04-18T16:09:08.242Z,16.55
2023-04-18T16:11:35.405Z,29.38
2023-04-18T16:14:02.432Z,11.55
2023-04-18T16:16:29.685Z,17.70
2023-04-18T16:18:56.806Z,19.00
2023-04-18T16:21:23.861Z,14.35
2023-04-18T16:23:51.115Z,28.77
2023-04-18T16:26:18.211Z,15.00
2023-04-18T16:28:45.555Z,21.65
2023-04-18T16:31:15.341Z,11.18
2023-04-18T16:33:43.051Z,12.13
2023-04-18T16:36:12.991Z,12.27
2023-04-18T16:38:40.201Z,15.90
2023-04-18T16:41:07.374Z,15.23
2023-04-18T16:43:38.089Z,22.13
2023-04-18T16:46:05.691Z,12.88
2023-04-18T16:48:32.893Z,16.58
2023-04-18T16:51:00.149Z,14.48
2023-04-18T16:53:27.363Z,13.70
2023-04-18T16:55:54.717Z,15.75
2023-04-18T16:58:23.280Z,17.55
2023-04-18T17:00:50.445Z,15.00
2023-04-18T17:03:17.724Z,16.95
2023-04-18T17:05:44.840Z,15.43
2023-04-18T17:08:11.943Z,16.15
2023-04-18T17:10:40.984Z,19.13
2023-04-18T17:13:08.018Z,12.73
2023-04-18T17:15:36.118Z,18.15
2023-04-18T17:18:03.916Z,19.08
2023-04-18T17:20:33.620Z,16.10
2023-04-18T17:23:00.868Z,16.80
2023-04-18T17:25:27.979Z,17.25
2023-04-18T17:27:55.022Z,19.05
2023-04-18T17:30:22.198Z,17.48
2023-04-18T17:32:49.405Z,18.35
2023-04-18T17:35:16.462Z,15.40
2023-04-18T17:37:43.532Z,11.65
2023-04-18T17:40:11.756Z,16.92
2023-04-18T17:42:38.898Z,19.17
2023-04-18T17:45:07.770Z,14.70
2023-04-18T17:47:36.724Z,15.18
2023-04-18T17:50:05.106Z,18.67
2023-04-18T17:52:32.821Z,19.50
2023-04-18T17:55:01.707Z,16.63
2023-04-18T17:57:33.778Z,19.63
2023-04-18T18:00:08.506Z,14.38
2023-04-18T18:02:44.845Z,15.20
2023-04-18T18:05:14.595Z,15.40
2023-04-18T18:07:45.981Z,17.38
2023-04-18T18:10:24.422Z,12.35
2023-04-18T18:12:51.547Z,17.10
2023-04-18T18:15:19.289Z,13.02
2023-04-18T18:17:57.344Z,13.65
2023-04-18T18:20:24.570Z,17.67
2023-04-18T18:22:52.916Z,13.30
2023-04-18T18:25:21.062Z,15.90
2023-04-18T18:27:48.400Z,14.57
2023-04-18T18:30:15.582Z,11.13
2023-04-18T18:35:33.212Z,11.30
2023-04-18T18:38:00.439Z,9.52
2023-04-18T18:40:27.597Z,13.30
2023-04-18T18:42:56.456Z,16.50
2023-04-18T18:45:26.308Z,16.13
2023-04-18T18:47:53.773Z,10.05
2023-04-18T18:50:20.877Z,13.05
2023-04-18T18:52:48.062Z,10.23
2023-04-18T18:55:16.459Z,9.55
2023-04-18T18:57:43.555Z,8.98
2023-04-18T19:00:11.295Z,14.27
2023-04-18T19:02:39.341Z,13.68
2023-04-18T19:05:07.598Z,13.55
2023-04-18T19:07:34.741Z,12.88
2023-04-18T19:10:14.767Z,14.77
2023-04-18T19:12:42.057Z,13.68
2023-04-18T19:15:09.824Z,10.05
2023-04-18T19:17:37.033Z,11.52
2023-04-18T19:20:04.681Z,9.07
2023-04-18T19:22:33.254Z,14.80
2023-04-18T19:25:00.993Z,11.27
2023-04-18T19:27:28.578Z,12.57
2023-04-18T19:29:55.821Z,18.70
2023-04-18T19:32:23.035Z,17.10
2023-04-18T19:34:51.404Z,14.88
2023-04-18T19:37:18.604Z,15.63
2023-04-18T19:39:45.649Z,14.15
2023-04-18T19:42:12.740Z,15.38
2023-04-18T19:44:39.779Z,11.90
2023-04-18T19:47:06.944Z,13.07
2023-04-18T19:49:34.154Z,12.02
2023-04-18T19:52:01.383Z,14.70
2023-04-18T19:54:28.491Z,11.85
2023-04-18T19:56:55.638Z,14.43
2023-04-18T19:59:22.707Z,14.70
2023-04-18T20:01:49.822Z,10.88
2023-04-18T20:04:17.268Z,11.38
2023-04-18T20:06:44.699Z,16.05
2023-04-18T20:09:16.847Z,12.35
2023-04-18T20:11:44.341Z,10.90
2023-04-18T20:14:11.482Z,12.23
2023-04-18T20:16:39.187Z,13.02
2023-04-18T20:19:06.553Z,14.73
2023-04-18T20:21:33.594Z,12.55
2023-04-18T20:24:00.791Z,10.80
2023-04-18T20:26:27.896Z,15.65
2023-04-18T20:28:55.111Z,10.85
2023-04-18T20:31:22.253Z,13.13
2023-04-18T20:33:49.390Z,17.38
2023-04-18T20:36:17.719Z,13.63
2023-04-18T20:38:45.126Z,13.45
2023-04-18T20:41:18.272Z,13.27
2023-04-18T20:43:46.974Z,15.93
2023-04-18T20:46:14.629Z,20.08
2023-04-18T20:48:41.892Z,16.60
2023-04-18T20:51:09.055Z,13.35
2023-04-18T20:53:36.212Z,14.23
2023-04-18T20:56:03.406Z,15.23
2023-04-18T20:58:30.701Z,15.45
2023-04-18T21:00:57.709Z,11.73
2023-04-18T21:03:25.214Z,13.98
2023-04-18T21:05:52.792Z,18.63
2023-04-18T21:08:19.985Z,8.60
2023-04-18T21:10:47.085Z,12.02
2023-04-18T21:13:14.268Z,25.77
2023-04-18T21:15:42.403Z,14.30
2023-04-18T21:18:09.889Z,17.08
2023-04-18T21:20:37.349Z,13.88
2023-04-18T21:23:04.617Z,13.23
2023-04-18T21:25:31.716Z,11.00
2023-04-18T21:27:58.887Z,14.40
2023-04-18T21:30:26.069Z,9.40
2023-04-18T21:32:53.327Z,10.15
2023-04-18T21:35:22.614Z,9.43
2023-04-18T21:37:51.458Z,10.98
2023-04-18T21:40:18.661Z,8.82
2023-04-18T21:42:46.527Z,8.15
2023-04-18T21:45:14.887Z,9.45
2023-04-18T21:47:42.075Z,10.32
2023-04-18T21:50:10.357Z,9.00
2023-04-18T21:52:37.675Z,18.63
2023-04-18T21:55:05.216Z,18.05
2023-04-18T21:57:33.751Z,11.45
2023-04-18T22:00:00.864Z,11.15
2023-04-18T22:02:28.759Z,10.15
2023-04-18T22:04:55.956Z,10.57
2023-04-18T22:07:24.722Z,11.73
2023-04-18T22:09:51.996Z,8.05
2023-04-18T22:12:19.334Z,11.95
2023-04-18T22:14:48.545Z,12.75
2023-04-18T22:17:16.016Z,11.65
2023-04-18T22:19:44.696Z,10.48
2023-04-18T22:22:12.435Z,7.18
2023-04-18T22:24:39.771Z,10.10
2023-04-18T22:27:07.179Z,9.48
2023-04-18T22:29:34.522Z,12.38
2023-04-18T22:32:01.803Z,12.18
2023-04-18T22:34:29.000Z,9.13
2023-04-18T22:36:56.024Z,9.07
2023-04-18T22:39:25.065Z,11.10
2023-04-18T22:41:52.157Z,11.43
2023-04-18T22:44:19.407Z,14.70
2023-04-18T22:46:48.175Z,14.32
2023-04-18T22:49:15.678Z,16.88
2023-04-18T22:51:44.059Z,14.55
2023-04-18T22:54:11.227Z,11.82
2023-04-18T22:56:38.260Z,14.48
2023-04-18T22:59:05.311Z,14.55
2023-04-18T23:01:32.452Z,10.32
2023-04-18T23:03:59.638Z,10.50
2023-04-18T23:06:28.456Z,12.00
2023-04-18T23:08:55.825Z,9.27
2023-04-18T23:11:22.865Z,10.73
2023-04-18T23:13:50.013Z,16.95
2023-04-18T23:16:17.089Z,10.25
2023-04-18T23:18:44.269Z,13.75
2023-04-18T23:21:11.331Z,11.90
2023-04-18T23:23:38.419Z,10.00
2023-04-18T23:26:15.299Z,13.63
2023-04-18T23:28:42.469Z,10.95
2023-04-18T23:31:10.007Z,13.93
2023-04-18T23:33:37.574Z,11.93
2023-04-18T23:36:05.015Z,9.35
2023-04-18T23:38:32.453Z,10.65
2023-04-18T23:40:59.543Z,11.10
2023-04-18T23:43:26.617Z,11.05
2023-04-18T23:45:53.637Z,13.70
2023-04-18T23:48:20.679Z,16.30
2023-04-18T23:50:49.237Z,11.70
2023-04-18T23:53:17.464Z,12.05
2023-04-18T23:55:44.603Z,11.38
2023-04-18T23:58:11.732Z,14.30
